Terminal Aerodrome Forecast
Issued by NWS Brownsville, TX

Home | Current Version | Previous Version | Text Only | Print | Product List | Glossary On
Versions: 1 2 3 4 5 6 7 8 9 10 11 12 13 14 15 16 17
984
FTUS44 KBRO 241129
TAFHRL
TAF
KHRL 241129Z 2412/2512 17018G25KT P6SM SCT025 OVC035
      TEMPO 2412/2416 BKN022
     FM241600 18022G29KT P6SM BKN050
     FM242200 16017G23KT P6SM SCT050
     FM250200 16014KT P6SM BKN250
     FM250400 16009KT P6SM FEW025 BKN250=

USA.gov is the U.S. government's official web portal to all federal, state and local government web resources and services.